createdAt,value
2019-03-24T00:02:13.711Z,36.55
2019-03-24T00:04:42.089Z,35.15
2019-03-24T00:07:10.488Z,35.43
2019-03-24T00:09:38.872Z,36.75
2019-03-24T00:12:07.266Z,36.63
2019-03-24T00:14:35.647Z,36.50
2019-03-24T00:17:04.128Z,34.92
2019-03-24T00:19:32.504Z,35.40
2019-03-24T00:22:00.905Z,36.58
2019-03-24T00:24:29.280Z,38.88
2019-03-24T00:26:58.144Z,38.78
2019-03-24T00:29:26.514Z,36.88
2019-03-24T00:31:54.876Z,40.28
2019-03-24T00:34:23.256Z,33.90
2019-03-24T00:36:51.656Z,36.73
2019-03-24T00:39:20.037Z,36.40
2019-03-24T00:41:48.427Z,37.88
2019-03-24T00:44:16.814Z,38.38
2019-03-24T00:46:45.197Z,37.08
2019-03-24T00:49:13.563Z,37.08
2019-03-24T00:51:41.976Z,37.00
2019-03-24T00:54:10.342Z,37.20
2019-03-24T00:56:38.744Z,35.73
2019-03-24T00:59:07.121Z,37.10
2019-03-24T01:01:35.524Z,38.30
2019-03-24T01:04:03.916Z,37.13
2019-03-24T01:06:32.344Z,38.73
2019-03-24T01:09:00.678Z,38.42
2019-03-24T01:11:29.071Z,36.42
2019-03-24T01:13:57.388Z,37.58
2019-03-24T01:16:25.863Z,37.30
2019-03-24T01:18:54.240Z,37.05
2019-03-24T01:21:22.643Z,33.18
2019-03-24T01:23:51.068Z,37.23
2019-03-24T01:26:19.455Z,35.63
2019-03-24T01:28:47.881Z,36.40
2019-03-24T01:31:16.260Z,35.08
2019-03-24T01:33:44.660Z,38.73
2019-03-24T01:36:13.040Z,34.08
2019-03-24T01:38:41.445Z,35.50
2019-03-24T01:41:09.823Z,36.38
2019-03-24T01:43:38.228Z,35.43
2019-03-24T01:46:06.603Z,34.43
2019-03-24T01:48:34.998Z,34.80
2019-03-24T01:51:03.388Z,35.13
2019-03-24T01:53:31.783Z,38.75
2019-03-24T01:56:00.158Z,40.35
2019-03-24T01:58:28.483Z,41.30
2019-03-24T02:00:56.848Z,35.08
2019-03-24T02:03:25.240Z,37.48
2019-03-24T02:05:53.626Z,34.88
2019-03-24T02:08:22.056Z,34.55
2019-03-24T02:10:50.432Z,39.50
2019-03-24T02:13:18.845Z,41.63
2019-03-24T02:15:47.324Z,41.45
2019-03-24T02:18:15.723Z,39.83
2019-03-24T02:20:44.098Z,37.85
2019-03-24T02:23:12.493Z,41.40
2019-03-24T02:25:40.920Z,39.80
2019-03-24T02:28:09.305Z,40.08
2019-03-24T02:30:37.709Z,35.98
2019-03-24T02:33:06.173Z,34.38
2019-03-24T02:35:34.543Z,37.50
2019-03-24T02:38:05.691Z,37.95
2019-03-24T02:40:34.083Z,35.08
2019-03-24T02:43:02.475Z,36.75
2019-03-24T02:45:30.853Z,38.17
2019-03-24T02:47:59.251Z,37.28
2019-03-24T02:50:27.633Z,38.02
2019-03-24T02:52:56.104Z,35.83
2019-03-24T02:55:24.461Z,38.25
2019-03-24T02:57:52.863Z,37.40
2019-03-24T03:00:21.246Z,36.85
2019-03-24T03:02:49.666Z,36.63
2019-03-24T03:05:18.045Z,35.30
2019-03-24T03:07:46.570Z,38.70
2019-03-24T03:10:15.121Z,38.50
2019-03-24T03:12:43.557Z,36.80
2019-03-24T03:15:12.014Z,36.20
2019-03-24T03:17:40.398Z,33.83
2019-03-24T03:20:08.890Z,35.15
2019-03-24T03:22:37.265Z,37.85
2019-03-24T03:25:07.415Z,35.50
2019-03-24T03:27:35.855Z,35.63
2019-03-24T03:30:07.895Z,36.73
2019-03-24T03:32:36.236Z,36.77
2019-03-24T03:35:07.164Z,33.75
2019-03-24T03:37:35.543Z,36.38
2019-03-24T03:40:07.982Z,34.10
2019-03-24T03:42:37.062Z,35.77
2019-03-24T03:45:05.518Z,34.70
2019-03-24T03:47:33.924Z,35.43
2019-03-24T03:50:02.391Z,36.68
2019-03-24T03:52:30.833Z,36.45
2019-03-24T03:54:59.233Z,37.05
2019-03-24T03:57:27.607Z,34.58
2019-03-24T03:59:56.011Z,35.83
2019-03-24T04:02:24.406Z,33.83
2019-03-24T04:04:52.808Z,32.55
2019-03-24T04:07:21.183Z,35.38
2019-03-24T04:09:49.579Z,31.50
2019-03-24T04:12:18.013Z,32.55
2019-03-24T04:14:46.457Z,33.10
2019-03-24T04:17:14.841Z,31.90
2019-03-24T04:19:43.242Z,31.57
2019-03-24T04:22:11.626Z,30.90
2019-03-24T04:24:40.059Z,35.13
2019-03-24T04:27:08.437Z,33.80
2019-03-24T04:29:36.841Z,32.70
2019-03-24T04:32:05.222Z,33.02
2019-03-24T04:34:33.599Z,31.90
2019-03-24T04:37:01.981Z,31.77
2019-03-24T04:39:30.363Z,31.85
2019-03-24T04:41:58.786Z,34.78
2019-03-24T04:44:27.178Z,30.88
2019-03-24T04:46:55.496Z,34.92
2019-03-24T04:49:23.882Z,34.63
2019-03-24T04:51:52.256Z,33.58
2019-03-24T04:54:20.648Z,31.37
2019-03-24T04:56:49.041Z,34.23
2019-03-24T04:59:17.440Z,32.35
2019-03-24T05:01:45.889Z,34.88
2019-03-24T05:04:14.273Z,35.23
2019-03-24T05:06:42.634Z,32.98
2019-03-24T05:09:11.013Z,32.42
2019-03-24T05:11:39.438Z,34.88
2019-03-24T05:14:07.801Z,31.97
2019-03-24T05:16:36.201Z,33.85
2019-03-24T05:19:04.590Z,30.27
2019-03-24T05:21:32.995Z,31.42
2019-03-24T05:24:01.376Z,31.35
2019-03-24T05:26:29.855Z,34.45
2019-03-24T05:28:58.224Z,33.08
2019-03-24T05:31:26.724Z,30.48
2019-03-24T05:33:55.136Z,33.42
2019-03-24T05:36:24.877Z,32.38
2019-03-24T05:38:53.499Z,33.33
2019-03-24T05:41:21.945Z,33.23
2019-03-24T05:43:50.319Z,32.48
2019-03-24T05:46:18.711Z,33.38
2019-03-24T05:48:47.094Z,32.23
2019-03-24T05:51:15.505Z,31.05
2019-03-24T05:53:43.872Z,32.28
2019-03-24T05:56:12.281Z,33.10
2019-03-24T05:58:40.670Z,34.43
2019-03-24T06:01:09.144Z,32.95
2019-03-24T06:03:38.455Z,36.45
2019-03-24T06:06:06.848Z,31.70
2019-03-24T06:08:35.905Z,30.40
2019-03-24T06:11:04.435Z,31.73
2019-03-24T06:13:32.810Z,33.73
2019-03-24T06:16:01.198Z,31.87
2019-03-24T06:18:29.586Z,31.02
2019-03-24T06:20:57.986Z,34.10
2019-03-24T06:23:26.355Z,33.55
2019-03-24T06:25:54.784Z,31.15
2019-03-24T06:28:24.085Z,33.15
2019-03-24T06:30:52.483Z,31.12
2019-03-24T06:33:20.857Z,31.97
2019-03-24T06:35:49.258Z,33.65
2019-03-24T06:38:17.643Z,32.03
2019-03-24T06:40:46.039Z,31.65
2019-03-24T06:43:14.463Z,32.55
2019-03-24T06:45:42.879Z,32.13
2019-03-24T06:48:11.239Z,30.48
2019-03-24T06:50:39.640Z,29.90
2019-03-24T06:53:08.011Z,30.88
2019-03-24T06:55:36.322Z,30.40
2019-03-24T06:58:04.743Z,30.02
2019-03-24T07:00:33.144Z,30.43
2019-03-24T07:03:04.556Z,28.07
2019-03-24T07:05:32.960Z,29.48
2019-03-24T07:08:01.377Z,29.90
2019-03-24T07:10:29.770Z,31.82
2019-03-24T07:12:59.014Z,30.80
2019-03-24T07:15:27.423Z,29.87
2019-03-24T07:17:55.923Z,31.33
2019-03-24T07:20:24.318Z,31.95
2019-03-24T07:22:52.732Z,30.72
2019-03-24T07:25:21.117Z,31.33
2019-03-24T07:27:49.537Z,31.52
2019-03-24T07:30:17.939Z,32.13
2019-03-24T07:32:46.372Z,32.78
2019-03-24T07:35:14.768Z,32.15
2019-03-24T07:37:43.187Z,33.00
2019-03-24T07:40:11.649Z,34.45
2019-03-24T07:42:40.063Z,34.78
2019-03-24T07:45:08.932Z,35.85
2019-03-24T07:47:37.359Z,36.10
2019-03-24T07:50:07.087Z,37.35
2019-03-24T07:52:35.521Z,37.53
2019-03-24T07:55:05.545Z,37.55
2019-03-24T07:57:33.972Z,37.45
2019-03-24T08:00:02.378Z,40.23
2019-03-24T08:02:31.170Z,41.80
2019-03-24T08:04:59.592Z,43.50
2019-03-24T08:07:28.014Z,45.00
2019-03-24T08:09:56.415Z,47.30
2019-03-24T08:12:24.830Z,45.83
2019-03-24T08:14:53.232Z,45.78
2019-03-24T08:17:21.661Z,46.25
2019-03-24T08:19:50.121Z,49.53
2019-03-24T08:22:18.560Z,51.50
2019-03-24T08:24:46.959Z,51.10
2019-03-24T08:27:16.007Z,51.40
2019-03-24T08:29:44.377Z,53.75
2019-03-24T08:32:12.792Z,53.98
2019-03-24T08:34:41.208Z,53.28
2019-03-24T08:37:09.633Z,54.98
2019-03-24T08:39:38.026Z,57.20
2019-03-24T08:42:06.454Z,53.23
2019-03-24T08:44:34.861Z,56.05
2019-03-24T08:47:03.288Z,58.83
2019-03-24T08:49:31.706Z,58.08
2019-03-24T08:52:00.158Z,55.78
2019-03-24T08:54:28.544Z,59.33
2019-03-24T08:56:56.954Z,58.95
2019-03-24T08:59:25.375Z,60.83
2019-03-24T09:01:53.784Z,60.75
2019-03-24T09:04:22.206Z,58.87
2019-03-24T09:06:50.632Z,59.05
2019-03-24T09:09:19.051Z,58.52
2019-03-24T09:11:47.445Z,59.85
2019-03-24T09:14:15.872Z,58.90
2019-03-24T09:16:44.266Z,58.60
2019-03-24T09:19:12.737Z,58.13
2019-03-24T09:21:41.150Z,62.85
2019-03-24T09:24:09.586Z,60.45
2019-03-24T09:26:37.979Z,62.40
2019-03-24T09:29:06.420Z,64.87
2019-03-24T09:31:34.825Z,58.78
2019-03-24T09:34:03.280Z,61.08
2019-03-24T09:36:31.716Z,61.08
2019-03-24T09:39:00.102Z,62.75
2019-03-24T09:41:28.500Z,62.80
2019-03-24T09:43:56.935Z,62.83
2019-03-24T09:46:25.363Z,64.05
2019-03-24T09:49:02.691Z,67.65
2019-03-24T09:51:23.860Z,66.95
2019-03-24T09:53:52.283Z,62.55
2019-03-24T09:56:20.689Z,64.12
2019-03-24T09:58:49.135Z,60.05
2019-03-24T10:01:17.545Z,60.63
2019-03-24T10:03:45.988Z,58.98
2019-03-24T10:06:14.374Z,60.30
2019-03-24T10:08:46.950Z,60.80
2019-03-24T10:11:12.829Z,58.90
2019-03-24T10:13:41.261Z,60.15
2019-03-24T10:16:09.657Z,56.33
2019-03-24T10:18:38.065Z,58.05
2019-03-24T10:21:06.952Z,60.80
2019-03-24T10:23:35.374Z,57.13
2019-03-24T10:26:03.771Z,57.73
2019-03-24T10:28:32.256Z,56.60
2019-03-24T10:31:00.644Z,55.30
2019-03-24T10:33:29.973Z,60.20
2019-03-24T10:35:58.366Z,59.63
2019-03-24T10:38:26.780Z,53.52
2019-03-24T10:40:55.177Z,63.02
2019-03-24T10:43:23.565Z,58.13
2019-03-24T10:45:52.088Z,62.38
2019-03-24T10:48:20.477Z,61.28
2019-03-24T10:50:48.914Z,62.48
2019-03-24T10:53:17.307Z,57.45
2019-03-24T10:55:45.733Z,52.90
2019-03-24T10:58:14.139Z,55.38
2019-03-24T11:00:43.105Z,56.18
2019-03-24T11:03:11.507Z,54.48
2019-03-24T11:05:39.932Z,55.80
2019-03-24T11:08:08.310Z,53.58
2019-03-24T11:10:37.895Z,56.75
2019-03-24T11:13:06.369Z,60.05
2019-03-24T11:15:34.910Z,55.23
2019-03-24T11:18:03.423Z,56.90
2019-03-24T11:20:31.843Z,56.80
2019-03-24T11:23:00.260Z,53.30
2019-03-24T11:25:28.739Z,53.08
2019-03-24T11:27:57.181Z,48.02
2019-03-24T11:30:25.671Z,57.38
2019-03-24T11:32:54.078Z,56.63
2019-03-24T11:35:22.526Z,56.40
2019-03-24T11:37:50.961Z,51.10
2019-03-24T11:40:19.400Z,55.50
2019-03-24T11:42:47.793Z,56.25
2019-03-24T11:45:17.276Z,53.68
2019-03-24T11:47:45.678Z,54.30
2019-03-24T11:50:14.197Z,53.20
2019-03-24T11:52:42.593Z,52.15
2019-03-24T11:55:11.122Z,53.73
2019-03-24T11:57:39.540Z,54.03
2019-03-24T12:00:13.689Z,56.73
2019-03-24T12:02:42.129Z,50.50
2019-03-24T12:05:10.528Z,49.42
2019-03-24T12:07:40.548Z,46.05
2019-03-24T12:10:09.414Z,50.00
2019-03-24T12:12:37.810Z,53.50
2019-03-24T12:15:06.911Z,52.38
2019-03-24T12:17:35.303Z,52.35
2019-03-24T12:20:07.685Z,54.25
2019-03-24T12:22:36.089Z,50.55
2019-03-24T12:25:05.007Z,50.98
2019-03-24T12:27:33.378Z,53.35
2019-03-24T12:30:01.818Z,51.90
2019-03-24T12:32:30.222Z,50.55
2019-03-24T12:34:58.643Z,51.92
2019-03-24T12:37:27.054Z,49.75
2019-03-24T12:39:57.933Z,52.20
2019-03-24T12:42:25.550Z,49.73
2019-03-24T12:44:53.943Z,48.48
2019-03-24T12:47:22.371Z,48.23
2019-03-24T12:49:51.417Z,48.30
2019-03-24T12:52:22.626Z,50.50
2019-03-24T12:54:51.041Z,51.25
2019-03-24T12:57:19.594Z,51.70
2019-03-24T12:59:47.968Z,49.05
2019-03-24T13:02:16.429Z,45.30
2019-03-24T13:04:44.846Z,50.40
2019-03-24T13:07:13.264Z,45.52
2019-03-24T13:09:41.632Z,50.92
2019-03-24T13:12:10.018Z,47.67
2019-03-24T13:14:38.399Z,47.00
2019-03-24T13:17:06.809Z,51.68
2019-03-24T13:19:36.281Z,47.13
2019-03-24T13:22:04.814Z,51.92
2019-03-24T13:24:33.176Z,47.62
2019-03-24T13:27:01.578Z,46.92
2019-03-24T13:29:29.968Z,47.78
2019-03-24T13:31:58.377Z,47.65
2019-03-24T13:34:26.743Z,48.95
2019-03-24T13:36:55.143Z,49.80
2019-03-24T13:39:23.519Z,43.30
2019-03-24T13:41:57.862Z,48.08
2019-03-24T13:44:26.226Z,45.48
2019-03-24T13:46:54.618Z,44.35
2019-03-24T13:49:22.991Z,45.98
2019-03-24T13:51:51.422Z,45.25
2019-03-24T13:54:19.804Z,46.65
2019-03-24T13:56:48.268Z,48.95
2019-03-24T13:59:16.707Z,47.40
2019-03-24T14:01:45.112Z,42.75
2019-03-24T14:04:13.487Z,46.60
2019-03-24T14:06:41.886Z,45.30
2019-03-24T14:09:11.539Z,48.28
2019-03-24T14:11:39.952Z,45.85
2019-03-24T14:14:08.337Z,49.45
2019-03-24T14:16:36.737Z,47.67
2019-03-24T14:19:05.115Z,46.33
2019-03-24T14:21:33.486Z,45.23
2019-03-24T14:24:01.816Z,42.93
2019-03-24T14:26:30.203Z,47.83
2019-03-24T14:28:58.598Z,45.75
2019-03-24T14:31:26.902Z,46.77
2019-03-24T14:33:55.302Z,42.65
2019-03-24T14:36:23.609Z,47.27
2019-03-24T14:38:52.010Z,43.08
2019-03-24T14:41:20.383Z,43.75
2019-03-24T14:43:48.702Z,46.18
2019-03-24T14:46:17.008Z,45.15
2019-03-24T14:48:45.407Z,44.77
2019-03-24T14:51:13.799Z,45.63
2019-03-24T14:53:42.183Z,47.58
2019-03-24T14:56:10.572Z,48.20
2019-03-24T14:58:39.024Z,47.40
2019-03-24T15:01:07.387Z,47.05
2019-03-24T15:03:35.710Z,46.05
2019-03-24T15:06:04.011Z,47.67
2019-03-24T15:08:32.420Z,47.08
2019-03-24T15:11:00.795Z,47.05
2019-03-24T15:13:29.205Z,46.63
2019-03-24T15:15:57.587Z,45.23
2019-03-24T15:18:26.001Z,45.00
2019-03-24T15:21:04.957Z,45.08
2019-03-24T15:23:24.436Z,46.65
2019-03-24T15:25:52.802Z,45.78
2019-03-24T15:28:21.134Z,47.10
2019-03-24T15:30:49.520Z,45.38
2019-03-24T15:33:17.917Z,49.08
2019-03-24T15:35:46.294Z,43.15
2019-03-24T15:38:14.717Z,42.20
2019-03-24T15:40:43.115Z,42.08
2019-03-24T15:43:12.328Z,44.48
2019-03-24T15:45:40.683Z,45.48
2019-03-24T15:48:09.013Z,44.70
2019-03-24T15:50:37.393Z,46.75
2019-03-24T15:53:05.791Z,45.60
2019-03-24T15:55:34.162Z,45.80
2019-03-24T15:58:02.936Z,44.13
2019-03-24T16:00:41.778Z,43.75
2019-03-24T16:03:10.183Z,42.20
2019-03-24T16:05:38.562Z,45.17
2019-03-24T16:08:06.959Z,42.48
2019-03-24T16:10:35.630Z,42.55
2019-03-24T16:13:04.089Z,41.60
2019-03-24T16:15:32.466Z,43.28
2019-03-24T16:18:01.238Z,43.92
2019-03-24T16:20:29.618Z,44.13
2019-03-24T16:22:58.027Z,43.25
2019-03-24T16:25:26.394Z,41.20
2019-03-24T16:27:54.708Z,41.73
2019-03-24T16:30:23.111Z,41.90
2019-03-24T16:32:51.523Z,42.03
2019-03-24T16:35:19.960Z,42.98
2019-03-24T16:37:48.397Z,41.28
2019-03-24T16:40:16.788Z,39.88
2019-03-24T16:42:45.167Z,41.98
2019-03-24T16:45:13.585Z,39.75
2019-03-24T16:47:41.951Z,41.30
2019-03-24T16:50:10.355Z,41.53
2019-03-24T16:52:38.797Z,41.53
2019-03-24T16:55:07.303Z,40.55
2019-03-24T16:57:35.703Z,40.52
2019-03-24T17:00:06.248Z,40.85
2019-03-24T17:02:34.627Z,40.35
2019-03-24T17:05:03.799Z,40.73
2019-03-24T17:07:32.180Z,40.88
2019-03-24T17:10:00.591Z,40.15
2019-03-24T17:12:28.962Z,41.18
2019-03-24T17:14:57.372Z,40.90
2019-03-24T17:17:25.761Z,39.80
2019-03-24T17:19:54.171Z,40.48
2019-03-24T17:22:22.557Z,38.85
2019-03-24T17:24:50.961Z,39.83
2019-03-24T17:27:19.415Z,41.02
2019-03-24T17:29:47.782Z,40.58
2019-03-24T17:32:16.158Z,39.85
2019-03-24T17:34:44.490Z,41.08
2019-03-24T17:37:12.816Z,40.88
2019-03-24T17:39:41.233Z,41.30
2019-03-24T17:42:09.735Z,38.45
2019-03-24T17:44:38.269Z,39.65
2019-03-24T17:47:06.642Z,40.25
2019-03-24T17:49:35.045Z,41.40
2019-03-24T17:52:03.351Z,40.30
2019-03-24T17:54:31.742Z,39.85
2019-03-24T17:57:00.039Z,42.30
2019-03-24T17:59:28.607Z,39.65
2019-03-24T18:01:56.983Z,44.05
2019-03-24T18:04:25.386Z,37.55
2019-03-24T18:06:53.825Z,39.88
2019-03-24T18:09:22.222Z,36.65
2019-03-24T18:11:50.531Z,37.45
2019-03-24T18:14:18.934Z,43.45
2019-03-24T18:16:47.261Z,40.38
2019-03-24T18:19:15.643Z,37.40
2019-03-24T18:21:44.059Z,42.40
2019-03-24T18:24:12.481Z,41.18
2019-03-24T18:26:44.680Z,39.83
2019-03-24T18:29:13.071Z,39.98
2019-03-24T18:31:41.468Z,39.53
2019-03-24T18:34:09.849Z,39.38
2019-03-24T18:36:38.369Z,40.45
2019-03-24T18:39:07.794Z,39.55
2019-03-24T18:41:36.242Z,39.45
2019-03-24T18:44:04.608Z,38.85
2019-03-24T18:46:34.892Z,39.45
2019-03-24T18:49:03.216Z,39.05
2019-03-24T18:51:37.694Z,39.75
2019-03-24T18:54:05.821Z,39.35
2019-03-24T18:56:54.805Z,39.33
2019-03-24T18:59:28.900Z,38.25
2019-03-24T19:01:59.281Z,40.58
2019-03-24T19:04:32.655Z,39.67
2019-03-24T19:07:05.234Z,39.88
2019-03-24T19:09:35.744Z,39.40
2019-03-24T19:12:03.793Z,36.53
2019-03-24T19:14:32.222Z,37.17
2019-03-24T19:17:00.607Z,35.38
2019-03-24T19:19:29.000Z,37.42
2019-03-24T19:21:59.739Z,37.98
2019-03-24T19:24:28.086Z,38.28
2019-03-24T19:26:56.473Z,32.88
2019-03-24T19:29:24.855Z,36.93
2019-03-24T19:31:53.269Z,37.20
2019-03-24T19:34:21.759Z,37.60
2019-03-24T19:36:50.178Z,37.55
2019-03-24T19:39:20.585Z,35.13
2019-03-24T19:41:48.603Z,38.38
2019-03-24T19:44:17.017Z,37.63
2019-03-24T19:46:47.022Z,34.53
2019-03-24T19:49:15.429Z,34.63
2019-03-24T19:51:43.890Z,32.98
2019-03-24T19:54:12.450Z,37.20
2019-03-24T19:56:40.816Z,35.33
2019-03-24T19:59:09.368Z,34.33
2019-03-24T20:01:37.804Z,36.03
2019-03-24T20:04:06.140Z,35.88
2019-03-24T20:06:34.600Z,35.88
2019-03-24T20:09:03.037Z,37.13
2019-03-24T20:11:31.540Z,36.35
2019-03-24T20:13:59.963Z,35.58
2019-03-24T20:16:28.324Z,34.92
2019-03-24T20:18:56.725Z,34.63
2019-03-24T20:21:25.160Z,35.92
2019-03-24T20:23:53.556Z,35.45
2019-03-24T20:26:21.977Z,33.23
2019-03-24T20:28:50.364Z,34.18
2019-03-24T20:31:18.762Z,35.58
2019-03-24T20:33:48.886Z,32.23
2019-03-24T20:36:17.376Z,31.48
2019-03-24T20:38:45.800Z,34.45
2019-03-24T20:41:14.134Z,33.25
2019-03-24T20:43:42.534Z,31.55
2019-03-24T20:46:10.912Z,32.98
2019-03-24T20:48:39.326Z,33.83
2019-03-24T20:51:07.806Z,33.13
2019-03-24T20:53:39.904Z,32.05
2019-03-24T20:56:08.305Z,34.40
2019-03-24T20:58:41.741Z,31.87
2019-03-24T21:01:18.665Z,33.48
2019-03-24T21:03:48.052Z,31.37
2019-03-24T21:06:18.989Z,33.42
2019-03-24T21:08:57.731Z,32.80
2019-03-24T21:11:28.663Z,32.80
2019-03-24T21:13:58.702Z,32.33
2019-03-24T21:16:27.051Z,32.95
2019-03-24T21:18:55.464Z,33.18
2019-03-24T21:21:23.852Z,31.87
2019-03-24T21:23:52.259Z,32.48
2019-03-24T21:26:20.625Z,33.28
2019-03-24T21:28:49.080Z,33.23
2019-03-24T21:31:17.433Z,33.00
2019-03-24T21:33:45.809Z,33.15
2019-03-24T21:36:14.183Z,32.42
2019-03-24T21:38:42.584Z,31.27
2019-03-24T21:41:10.954Z,31.62
2019-03-24T21:43:39.366Z,30.90
2019-03-24T21:46:07.752Z,29.98
2019-03-24T21:48:36.157Z,30.32
2019-03-24T21:51:04.709Z,28.62
2019-03-24T21:53:40.558Z,27.40
2019-03-24T21:56:03.178Z,26.17
2019-03-24T21:58:31.580Z,23.30
2019-03-24T22:00:59.962Z,22.85
2019-03-24T22:03:28.347Z,22.15
2019-03-24T22:05:56.730Z,21.95
2019-03-24T22:08:25.123Z,20.37
2019-03-24T22:10:53.500Z,20.60
2019-03-24T22:13:21.906Z,19.65
2019-03-24T22:15:50.222Z,19.92
2019-03-24T22:18:18.623Z,19.67
2019-03-24T22:20:49.205Z,19.40
2019-03-24T22:23:17.054Z,20.50
2019-03-24T22:25:45.440Z,20.08
2019-03-24T22:28:13.854Z,20.55
2019-03-24T22:30:42.226Z,21.50
2019-03-24T22:33:10.555Z,20.95
2019-03-24T22:35:38.942Z,21.12
2019-03-24T22:38:07.348Z,20.97
2019-03-24T22:40:35.736Z,21.27
2019-03-24T22:43:04.147Z,21.15
2019-03-24T22:45:32.524Z,21.68
2019-03-24T22:48:00.932Z,22.07
2019-03-24T22:50:29.306Z,22.17
2019-03-24T22:52:57.704Z,22.82
2019-03-24T22:55:26.075Z,24.72
2019-03-24T22:57:54.484Z,25.30
2019-03-24T23:00:24.503Z,25.92
2019-03-24T23:02:52.900Z,27.75
2019-03-24T23:05:21.285Z,28.12
2019-03-24T23:07:49.658Z,29.42
2019-03-24T23:10:18.071Z,29.55
2019-03-24T23:12:46.443Z,31.42
2019-03-24T23:15:14.844Z,32.95
2019-03-24T23:17:43.232Z,31.35
2019-03-24T23:20:11.640Z,32.30
2019-03-24T23:22:40.029Z,32.60
2019-03-24T23:25:08.448Z,31.87
2019-03-24T23:27:36.840Z,32.67
2019-03-24T23:30:08.299Z,33.73
2019-03-24T23:32:36.684Z,32.78
2019-03-24T23:35:06.758Z,31.87
2019-03-24T23:37:35.122Z,32.58
2019-03-24T23:40:04.583Z,30.12
2019-03-24T23:42:32.960Z,31.30
2019-03-24T23:45:01.370Z,31.52
2019-03-24T23:47:29.738Z,31.52
2019-03-24T23:49:58.135Z,29.32
2019-03-24T23:52:26.502Z,29.82
2019-03-24T23:54:54.914Z,30.00
2019-03-24T23:57:23.282Z,27.80
2019-03-24T23:59:51.674Z,27.17
